sensor_id;sensor_type;location;lat;lon;timestamp;P1;durP1;ratioP1;P2;durP2;ratioP2
12921;SDS011;6528;48.086;16.282;2023-02-28T00:00:53;3.47;;;3.17;;
12921;SDS011;6528;48.086;16.282;2023-02-28T00:03:20;4.57;;;3.63;;
12921;SDS011;6528;48.086;16.282;2023-02-28T00:05:47;3.37;;;3.17;;
12921;SDS011;6528;48.086;16.282;2023-02-28T00:08:13;3.80;;;3.50;;
12921;SDS011;6528;48.086;16.282;2023-02-28T00:10:40;3.40;;;3.10;;
12921;SDS011;6528;48.086;16.282;2023-02-28T00:13:07;3.00;;;2.80;;
12921;SDS011;6528;48.086;16.282;2023-02-28T00:15:34;3.73;;;3.33;;
12921;SDS011;6528;48.086;16.282;2023-02-28T00:18:01;2.93;;;2.73;;
12921;SDS011;6528;48.086;16.282;2023-02-28T00:20:29;3.37;;;3.00;;
12921;SDS011;6528;48.086;16.282;2023-02-28T00:22:56;3.37;;;3.07;;
12921;SDS011;6528;48.086;16.282;2023-02-28T00:25:23;3.33;;;3.03;;
12921;SDS011;6528;48.086;16.282;2023-02-28T00:27:51;3.10;;;2.90;;
12921;SDS011;6528;48.086;16.282;2023-02-28T00:30:19;3.70;;;3.30;;
12921;SDS011;6528;48.086;16.282;2023-02-28T00:32:47;2.50;;;2.30;;
12921;SDS011;6528;48.086;16.282;2023-02-28T00:35:15;3.23;;;2.93;;
12921;SDS011;6528;48.086;16.282;2023-02-28T00:37:42;3.50;;;3.20;;
12921;SDS011;6528;48.086;16.282;2023-02-28T00:40:10;3.17;;;2.97;;
12921;SDS011;6528;48.086;16.282;2023-02-28T00:42:38;3.43;;;3.07;;
12921;SDS011;6528;48.086;16.282;2023-02-28T00:45:06;3.50;;;3.20;;
12921;SDS011;6528;48.086;16.282;2023-02-28T00:47:34;2.97;;;2.77;;
12921;SDS011;6528;48.086;16.282;2023-02-28T00:50:01;3.90;;;3.27;;
12921;SDS011;6528;48.086;16.282;2023-02-28T00:52:28;3.40;;;3.10;;
12921;SDS011;6528;48.086;16.282;2023-02-28T00:54:55;2.77;;;2.50;;
12921;SDS011;6528;48.086;16.282;2023-02-28T00:57:22;4.77;;;3.57;;
12921;SDS011;6528;48.086;16.282;2023-02-28T00:59:49;3.40;;;3.10;;
12921;SDS011;6528;48.086;16.282;2023-02-28T01:02:15;3.10;;;2.90;;
12921;SDS011;6528;48.086;16.282;2023-02-28T01:04:44;3.30;;;3.00;;
12921;SDS011;6528;48.086;16.282;2023-02-28T01:07:10;2.97;;;2.77;;
12921;SDS011;6528;48.086;16.282;2023-02-28T01:09:37;3.20;;;2.30;;
12921;SDS011;6528;48.086;16.282;2023-02-28T01:12:04;2.80;;;2.60;;
12921;SDS011;6528;48.086;16.282;2023-02-28T01:14:31;3.00;;;2.70;;
12921;SDS011;6528;48.086;16.282;2023-02-28T01:16:57;3.67;;;3.37;;
12921;SDS011;6528;48.086;16.282;2023-02-28T01:19:24;2.87;;;2.67;;
12921;SDS011;6528;48.086;16.282;2023-02-28T01:21:51;3.10;;;2.83;;
12921;SDS011;6528;48.086;16.282;2023-02-28T01:24:18;3.00;;;2.80;;
12921;SDS011;6528;48.086;16.282;2023-02-28T01:26:45;3.50;;;3.20;;
12921;SDS011;6528;48.086;16.282;2023-02-28T01:29:11;3.70;;;3.40;;
12921;SDS011;6528;48.086;16.282;2023-02-28T01:31:38;3.07;;;2.87;;
12921;SDS011;6528;48.086;16.282;2023-02-28T01:34:05;3.27;;;2.97;;
12921;SDS011;6528;48.086;16.282;2023-02-28T01:36:32;2.87;;;2.67;;
12921;SDS011;6528;48.086;16.282;2023-02-28T01:38:58;3.20;;;2.90;;
12921;SDS011;6528;48.086;16.282;2023-02-28T01:41:26;3.20;;;2.90;;
12921;SDS011;6528;48.086;16.282;2023-02-28T01:44:04;3.13;;;2.93;;
12921;SDS011;6528;48.086;16.282;2023-02-28T01:46:50;3.57;;;3.27;;
12921;SDS011;6528;48.086;16.282;2023-02-28T01:49:16;3.10;;;2.90;;
12921;SDS011;6528;48.086;16.282;2023-02-28T01:51:51;2.97;;;2.77;;
12921;SDS011;6528;48.086;16.282;2023-02-28T01:54:22;3.37;;;2.63;;
12921;SDS011;6528;48.086;16.282;2023-02-28T01:56:57;3.00;;;2.80;;
12921;SDS011;6528;48.086;16.282;2023-02-28T01:59:31;3.33;;;2.90;;
12921;SDS011;6528;48.086;16.282;2023-02-28T02:02:12;2.97;;;2.77;;
12921;SDS011;6528;48.086;16.282;2023-02-28T02:04:41;3.73;;;3.27;;
12921;SDS011;6528;48.086;16.282;2023-02-28T02:07:20;3.40;;;3.10;;
12921;SDS011;6528;48.086;16.282;2023-02-28T02:09:49;3.33;;;3.03;;
12921;SDS011;6528;48.086;16.282;2023-02-28T02:12:32;3.70;;;3.40;;
12921;SDS011;6528;48.086;16.282;2023-02-28T02:15:21;2.70;;;2.50;;
12921;SDS011;6528;48.086;16.282;2023-02-28T02:17:56;2.93;;;2.63;;
12921;SDS011;6528;48.086;16.282;2023-02-28T02:20:44;2.77;;;2.57;;
12921;SDS011;6528;48.086;16.282;2023-02-28T02:23:28;2.70;;;2.50;;
12921;SDS011;6528;48.086;16.282;2023-02-28T02:26:43;3.80;;;2.77;;
12921;SDS011;6528;48.086;16.282;2023-02-28T02:29:14;3.10;;;2.90;;
12921;SDS011;6528;48.086;16.282;2023-02-28T02:31:56;3.33;;;2.70;;
12921;SDS011;6528;48.086;16.282;2023-02-28T02:37:25;4.00;;;3.07;;
12921;SDS011;6528;48.086;16.282;2023-02-28T02:42:45;3.60;;;2.93;;
12921;SDS011;6528;48.086;16.282;2023-02-28T02:45:16;3.50;;;3.20;;
12921;SDS011;6528;48.086;16.282;2023-02-28T02:47:52;3.13;;;2.93;;
12921;SDS011;6528;48.086;16.282;2023-02-28T02:50:22;3.10;;;2.80;;
12921;SDS011;6528;48.086;16.282;2023-02-28T02:52:55;3.30;;;3.03;;
12921;SDS011;6528;48.086;16.282;2023-02-28T02:55:25;3.27;;;2.97;;
12921;SDS011;6528;48.086;16.282;2023-02-28T02:57:59;3.00;;;2.73;;
12921;SDS011;6528;48.086;16.282;2023-02-28T03:00:39;3.20;;;2.90;;
12921;SDS011;6528;48.086;16.282;2023-02-28T03:03:09;3.27;;;2.97;;
12921;SDS011;6528;48.086;16.282;2023-02-28T03:05:48;3.00;;;2.80;;
12921;SDS011;6528;48.086;16.282;2023-02-28T03:08:16;2.97;;;2.77;;
12921;SDS011;6528;48.086;16.282;2023-02-28T03:10:44;3.70;;;3.23;;
12921;SDS011;6528;48.086;16.282;2023-02-28T03:24:43;3.77;;;3.47;;
12921;SDS011;6528;48.086;16.282;2023-02-28T03:27:31;2.90;;;2.70;;
12921;SDS011;6528;48.086;16.282;2023-02-28T03:30:24;3.00;;;2.80;;
12921;SDS011;6528;48.086;16.282;2023-02-28T03:35:32;3.50;;;3.20;;
12921;SDS011;6528;48.086;16.282;2023-02-28T03:38:08;3.23;;;2.93;;
12921;SDS011;6528;48.086;16.282;2023-02-28T03:41:00;3.60;;;3.20;;
12921;SDS011;6528;48.086;16.282;2023-02-28T03:43:35;2.73;;;2.53;;
12921;SDS011;6528;48.086;16.282;2023-02-28T03:46:08;5.13;;;2.83;;
12921;SDS011;6528;48.086;16.282;2023-02-28T03:51:32;3.67;;;3.37;;
12921;SDS011;6528;48.086;16.282;2023-02-28T03:54:02;2.77;;;2.53;;
12921;SDS011;6528;48.086;16.282;2023-02-28T04:01:54;3.30;;;2.97;;
12921;SDS011;6528;48.086;16.282;2023-02-28T04:04:21;4.00;;;3.70;;
12921;SDS011;6528;48.086;16.282;2023-02-28T04:06:52;3.10;;;2.87;;
12921;SDS011;6528;48.086;16.282;2023-02-28T04:09:26;3.40;;;3.10;;
12921;SDS011;6528;48.086;16.282;2023-02-28T04:11:53;3.37;;;3.07;;
12921;SDS011;6528;48.086;16.282;2023-02-28T04:14:24;3.50;;;3.00;;
12921;SDS011;6528;48.086;16.282;2023-02-28T04:16:50;2.80;;;2.60;;
12921;SDS011;6528;48.086;16.282;2023-02-28T04:19:18;3.50;;;3.20;;
12921;SDS011;6528;48.086;16.282;2023-02-28T04:21:49;3.83;;;3.53;;
12921;SDS011;6528;48.086;16.282;2023-02-28T04:24:21;3.97;;;3.67;;
12921;SDS011;6528;48.086;16.282;2023-02-28T04:26:51;2.63;;;2.43;;
12921;SDS011;6528;48.086;16.282;2023-02-28T04:29:20;3.23;;;3.03;;
12921;SDS011;6528;48.086;16.282;2023-02-28T04:31:58;3.40;;;3.10;;
12921;SDS011;6528;48.086;16.282;2023-02-28T04:34:27;3.30;;;3.03;;
12921;SDS011;6528;48.086;16.282;2023-02-28T04:36:56;3.60;;;3.30;;
12921;SDS011;6528;48.086;16.282;2023-02-28T04:39:38;3.57;;;3.20;;
12921;SDS011;6528;48.086;16.282;2023-02-28T04:42:05;3.17;;;2.93;;
12921;SDS011;6528;48.086;16.282;2023-02-28T04:44:32;3.87;;;3.57;;
12921;SDS011;6528;48.086;16.282;2023-02-28T04:46:59;3.47;;;3.17;;
12921;SDS011;6528;48.086;16.282;2023-02-28T04:49:26;3.47;;;3.00;;
12921;SDS011;6528;48.086;16.282;2023-02-28T04:51:53;3.43;;;3.10;;
12921;SDS011;6528;48.086;16.282;2023-02-28T04:54:19;3.27;;;2.97;;
12921;SDS011;6528;48.086;16.282;2023-02-28T04:56:46;3.07;;;2.77;;
12921;SDS011;6528;48.086;16.282;2023-02-28T04:59:15;3.33;;;3.07;;
12921;SDS011;6528;48.086;16.282;2023-02-28T05:01:45;3.30;;;3.10;;
12921;SDS011;6528;48.086;16.282;2023-02-28T05:04:13;2.93;;;2.73;;
12921;SDS011;6528;48.086;16.282;2023-02-28T05:06:40;3.63;;;3.33;;
12921;SDS011;6528;48.086;16.282;2023-02-28T05:09:07;3.33;;;3.10;;
12921;SDS011;6528;48.086;16.282;2023-02-28T05:11:34;3.37;;;2.90;;
12921;SDS011;6528;48.086;16.282;2023-02-28T05:14:05;3.20;;;2.90;;
12921;SDS011;6528;48.086;16.282;2023-02-28T05:16:36;3.00;;;2.80;;
12921;SDS011;6528;48.086;16.282;2023-02-28T05:19:03;2.87;;;2.67;;
12921;SDS011;6528;48.086;16.282;2023-02-28T05:21:37;3.50;;;3.20;;
12921;SDS011;6528;48.086;16.282;2023-02-28T05:24:08;4.37;;;3.30;;
12921;SDS011;6528;48.086;16.282;2023-02-28T05:26:37;3.77;;;2.90;;
12921;SDS011;6528;48.086;16.282;2023-02-28T05:29:06;4.10;;;3.07;;
12921;SDS011;6528;48.086;16.282;2023-02-28T05:31:33;3.70;;;3.17;;
12921;SDS011;6528;48.086;16.282;2023-02-28T05:34:00;3.43;;;3.13;;
12921;SDS011;6528;48.086;16.282;2023-02-28T05:36:27;3.30;;;3.10;;
12921;SDS011;6528;48.086;16.282;2023-02-28T05:38:54;3.30;;;3.10;;
12921;SDS011;6528;48.086;16.282;2023-02-28T05:41:21;4.50;;;3.97;;
12921;SDS011;6528;48.086;16.282;2023-02-28T05:43:48;3.60;;;3.30;;
12921;SDS011;6528;48.086;16.282;2023-02-28T05:46:15;3.70;;;3.40;;
12921;SDS011;6528;48.086;16.282;2023-02-28T05:48:42;3.53;;;3.23;;
12921;SDS011;6528;48.086;16.282;2023-02-28T05:51:11;3.60;;;3.20;;
12921;SDS011;6528;48.086;16.282;2023-02-28T05:53:38;3.27;;;3.00;;
12921;SDS011;6528;48.086;16.282;2023-02-28T05:56:05;3.47;;;3.17;;
12921;SDS011;6528;48.086;16.282;2023-02-28T05:58:32;3.17;;;2.87;;
12921;SDS011;6528;48.086;16.282;2023-02-28T06:00:59;3.60;;;3.30;;
12921;SDS011;6528;48.086;16.282;2023-02-28T06:03:45;3.17;;;2.87;;
12921;SDS011;6528;48.086;16.282;2023-02-28T06:06:11;3.80;;;3.50;;
12921;SDS011;6528;48.086;16.282;2023-02-28T06:08:38;3.53;;;3.30;;
12921;SDS011;6528;48.086;16.282;2023-02-28T06:11:05;6.40;;;3.60;;
12921;SDS011;6528;48.086;16.282;2023-02-28T06:13:32;3.80;;;3.50;;
12921;SDS011;6528;48.086;16.282;2023-02-28T06:16:02;3.57;;;3.27;;
12921;SDS011;6528;48.086;16.282;2023-02-28T06:18:29;5.27;;;3.60;;
12921;SDS011;6528;48.086;16.282;2023-02-28T06:20:57;2.90;;;2.70;;
12921;SDS011;6528;48.086;16.282;2023-02-28T06:23:24;4.00;;;3.37;;
12921;SDS011;6528;48.086;16.282;2023-02-28T06:25:51;3.80;;;3.00;;
12921;SDS011;6528;48.086;16.282;2023-02-28T06:28:19;3.83;;;3.43;;
12921;SDS011;6528;48.086;16.282;2023-02-28T06:30:46;4.30;;;3.80;;
12921;SDS011;6528;48.086;16.282;2023-02-28T06:33:12;3.80;;;3.50;;
12921;SDS011;6528;48.086;16.282;2023-02-28T06:35:39;4.23;;;3.93;;
12921;SDS011;6528;48.086;16.282;2023-02-28T06:38:06;4.10;;;3.50;;
12921;SDS011;6528;48.086;16.282;2023-02-28T06:40:32;3.77;;;3.40;;
12921;SDS011;6528;48.086;16.282;2023-02-28T06:43:02;4.83;;;4.33;;
12921;SDS011;6528;48.086;16.282;2023-02-28T06:45:29;5.40;;;4.80;;
12921;SDS011;6528;48.086;16.282;2023-02-28T06:47:56;5.33;;;4.10;;
12921;SDS011;6528;48.086;16.282;2023-02-28T06:50:22;4.70;;;3.97;;
12921;SDS011;6528;48.086;16.282;2023-02-28T06:52:49;5.00;;;4.60;;
12921;SDS011;6528;48.086;16.282;2023-02-28T06:55:20;8.17;;;7.13;;
12921;SDS011;6528;48.086;16.282;2023-02-28T06:57:46;9.50;;;8.60;;
12921;SDS011;6528;48.086;16.282;2023-02-28T07:00:13;8.17;;;7.40;;
12921;SDS011;6528;48.086;16.282;2023-02-28T07:02:40;7.90;;;7.10;;
12921;SDS011;6528;48.086;16.282;2023-02-28T07:05:07;7.60;;;6.90;;
12921;SDS011;6528;48.086;16.282;2023-02-28T07:07:34;8.90;;;7.50;;
12921;SDS011;6528;48.086;16.282;2023-02-28T07:10:03;9.77;;;8.20;;
12921;SDS011;6528;48.086;16.282;2023-02-28T07:12:30;9.00;;;8.10;;
12921;SDS011;6528;48.086;16.282;2023-02-28T07:14:57;8.80;;;7.97;;
12921;SDS011;6528;48.086;16.282;2023-02-28T07:17:23;7.90;;;7.20;;
12921;SDS011;6528;48.086;16.282;2023-02-28T07:19:50;7.93;;;7.13;;
12921;SDS011;6528;48.086;16.282;2023-02-28T07:22:17;7.50;;;6.90;;
12921;SDS011;6528;48.086;16.282;2023-02-28T07:24:43;6.90;;;6.30;;
12921;SDS011;6528;48.086;16.282;2023-02-28T07:27:10;11.43;;;8.17;;
12921;SDS011;6528;48.086;16.282;2023-02-28T07:29:37;6.70;;;6.10;;
12921;SDS011;6528;48.086;16.282;2023-02-28T07:32:04;7.43;;;6.50;;
12921;SDS011;6528;48.086;16.282;2023-02-28T07:34:31;6.77;;;6.17;;
12921;SDS011;6528;48.086;16.282;2023-02-28T07:36:57;10.80;;;7.17;;
12921;SDS011;6528;48.086;16.282;2023-02-28T07:39:24;7.40;;;6.70;;
12921;SDS011;6528;48.086;16.282;2023-02-28T07:41:51;7.27;;;6.60;;
12921;SDS011;6528;48.086;16.282;2023-02-28T07:44:18;6.83;;;6.20;;
12921;SDS011;6528;48.086;16.282;2023-02-28T07:46:45;6.80;;;6.20;;
12921;SDS011;6528;48.086;16.282;2023-02-28T07:49:11;7.77;;;7.07;;
12921;SDS011;6528;48.086;16.282;2023-02-28T07:51:38;7.63;;;5.93;;
12921;SDS011;6528;48.086;16.282;2023-02-28T07:54:05;8.00;;;6.30;;
12921;SDS011;6528;48.086;16.282;2023-02-28T07:56:32;7.03;;;6.43;;
12921;SDS011;6528;48.086;16.282;2023-02-28T07:58:58;6.60;;;6.00;;
12921;SDS011;6528;48.086;16.282;2023-02-28T08:01:25;7.27;;;6.40;;
12921;SDS011;6528;48.086;16.282;2023-02-28T08:03:52;7.60;;;6.53;;
12921;SDS011;6528;48.086;16.282;2023-02-28T08:06:21;7.17;;;6.47;;
12921;SDS011;6528;48.086;16.282;2023-02-28T08:08:50;6.90;;;6.30;;
12921;SDS011;6528;48.086;16.282;2023-02-28T08:11:17;7.20;;;6.60;;
12921;SDS011;6528;48.086;16.282;2023-02-28T08:13:44;6.57;;;5.97;;
12921;SDS011;6528;48.086;16.282;2023-02-28T08:16:12;7.73;;;6.97;;
12921;SDS011;6528;48.086;16.282;2023-02-28T08:18:43;7.07;;;6.47;;
12921;SDS011;6528;48.086;16.282;2023-02-28T08:21:10;6.43;;;5.83;;
12921;SDS011;6528;48.086;16.282;2023-02-28T08:23:37;5.70;;;5.20;;
12921;SDS011;6528;48.086;16.282;2023-02-28T08:26:04;6.33;;;5.67;;
12921;SDS011;6528;48.086;16.282;2023-02-28T08:28:31;7.20;;;6.50;;
12921;SDS011;6528;48.086;16.282;2023-02-28T08:30:58;5.53;;;5.03;;
12921;SDS011;6528;48.086;16.282;2023-02-28T08:33:26;6.30;;;5.73;;
12921;SDS011;6528;48.086;16.282;2023-02-28T08:35:54;6.73;;;6.10;;
12921;SDS011;6528;48.086;16.282;2023-02-28T08:38:22;6.17;;;5.63;;
12921;SDS011;6528;48.086;16.282;2023-02-28T08:40:50;5.80;;;5.30;;
12921;SDS011;6528;48.086;16.282;2023-02-28T08:43:24;6.23;;;5.63;;
12921;SDS011;6528;48.086;16.282;2023-02-28T08:45:52;6.80;;;6.20;;
12921;SDS011;6528;48.086;16.282;2023-02-28T08:48:19;6.37;;;5.80;;
12921;SDS011;6528;48.086;16.282;2023-02-28T08:50:55;7.00;;;6.30;;
12921;SDS011;6528;48.086;16.282;2023-02-28T08:53:33;6.07;;;5.57;;
12921;SDS011;6528;48.086;16.282;2023-02-28T08:56:04;6.10;;;5.50;;
12921;SDS011;6528;48.086;16.282;2023-02-28T08:58:33;5.70;;;5.20;;
12921;SDS011;6528;48.086;16.282;2023-02-28T09:01:00;6.50;;;5.90;;
12921;SDS011;6528;48.086;16.282;2023-02-28T09:03:33;6.20;;;5.70;;
12921;SDS011;6528;48.086;16.282;2023-02-28T09:06:00;5.90;;;5.40;;
12921;SDS011;6528;48.086;16.282;2023-02-28T09:08:28;6.97;;;5.40;;
12921;SDS011;6528;48.086;16.282;2023-02-28T09:10:56;6.83;;;6.13;;
12921;SDS011;6528;48.086;16.282;2023-02-28T09:13:26;6.77;;;5.77;;
12921;SDS011;6528;48.086;16.282;2023-02-28T09:15:54;5.93;;;5.37;;
12921;SDS011;6528;48.086;16.282;2023-02-28T09:18:23;5.50;;;5.00;;
12921;SDS011;6528;48.086;16.282;2023-02-28T09:20:50;6.17;;;5.57;;
12921;SDS011;6528;48.086;16.282;2023-02-28T09:23:16;6.03;;;5.53;;
12921;SDS011;6528;48.086;16.282;2023-02-28T09:25:47;6.43;;;5.87;;
12921;SDS011;6528;48.086;16.282;2023-02-28T09:28:15;5.70;;;5.20;;
12921;SDS011;6528;48.086;16.282;2023-02-28T09:30:47;6.97;;;5.17;;
12921;SDS011;6528;48.086;16.282;2023-02-28T09:33:16;5.83;;;5.33;;
12921;SDS011;6528;48.086;16.282;2023-02-28T09:35:44;5.10;;;4.70;;
12921;SDS011;6528;48.086;16.282;2023-02-28T09:38:11;6.07;;;5.57;;
12921;SDS011;6528;48.086;16.282;2023-02-28T09:40:52;6.13;;;5.50;;
12921;SDS011;6528;48.086;16.282;2023-02-28T09:43:25;5.63;;;5.13;;
12921;SDS011;6528;48.086;16.282;2023-02-28T09:48:39;5.10;;;4.70;;
12921;SDS011;6528;48.086;16.282;2023-02-28T09:53:56;5.07;;;4.63;;
12921;SDS011;6528;48.086;16.282;2023-02-28T10:01:42;5.67;;;5.10;;
12921;SDS011;6528;48.086;16.282;2023-02-28T10:07:14;5.40;;;4.90;;
12921;SDS011;6528;48.086;16.282;2023-02-28T10:09:49;5.20;;;4.80;;
12921;SDS011;6528;48.086;16.282;2023-02-28T10:12:20;5.50;;;5.00;;
12921;SDS011;6528;48.086;16.282;2023-02-28T10:14:49;5.93;;;5.33;;
12921;SDS011;6528;48.086;16.282;2023-02-28T10:17:19;5.10;;;4.70;;
12921;SDS011;6528;48.086;16.282;2023-02-28T10:19:58;6.07;;;5.57;;
12921;SDS011;6528;48.086;16.282;2023-02-28T10:25:22;5.40;;;5.00;;
12921;SDS011;6528;48.086;16.282;2023-02-28T10:27:54;6.50;;;5.17;;
12921;SDS011;6528;48.086;16.282;2023-02-28T10:30:42;6.03;;;5.50;;
12921;SDS011;6528;48.086;16.282;2023-02-28T10:33:27;4.13;;;3.83;;
12921;SDS011;6528;48.086;16.282;2023-02-28T10:35:57;5.23;;;4.83;;
12921;SDS011;6528;48.086;16.282;2023-02-28T10:38:26;5.20;;;4.80;;
12921;SDS011;6528;48.086;16.282;2023-02-28T10:43:35;5.53;;;5.03;;
12921;SDS011;6528;48.086;16.282;2023-02-28T10:46:04;4.80;;;4.40;;
12921;SDS011;6528;48.086;16.282;2023-02-28T10:48:45;5.13;;;4.73;;
12921;SDS011;6528;48.086;16.282;2023-02-28T10:51:16;5.63;;;5.13;;
12921;SDS011;6528;48.086;16.282;2023-02-28T10:53:52;4.47;;;4.10;;
12921;SDS011;6528;48.086;16.282;2023-02-28T10:56:28;5.17;;;4.67;;
12921;SDS011;6528;48.086;16.282;2023-02-28T11:04:32;5.00;;;4.50;;
12921;SDS011;6528;48.086;16.282;2023-02-28T11:07:17;6.07;;;5.03;;
12921;SDS011;6528;48.086;16.282;2023-02-28T11:09:52;5.30;;;4.90;;
12921;SDS011;6528;48.086;16.282;2023-02-28T11:12:36;5.63;;;5.13;;
12921;SDS011;6528;48.086;16.282;2023-02-28T11:17:56;4.30;;;4.00;;
12921;SDS011;6528;48.086;16.282;2023-02-28T11:20:33;4.80;;;4.40;;
12921;SDS011;6528;48.086;16.282;2023-02-28T11:23:01;4.87;;;4.40;;
12921;SDS011;6528;48.086;16.282;2023-02-28T11:25:31;4.70;;;4.40;;
12921;SDS011;6528;48.086;16.282;2023-02-28T11:28:00;4.40;;;4.00;;
12921;SDS011;6528;48.086;16.282;2023-02-28T11:33:00;4.17;;;3.87;;
12921;SDS011;6528;48.086;16.282;2023-02-28T11:35:44;4.80;;;4.40;;
12921;SDS011;6528;48.086;16.282;2023-02-28T11:38:11;4.43;;;3.70;;
12921;SDS011;6528;48.086;16.282;2023-02-28T11:40:42;4.93;;;4.53;;
12921;SDS011;6528;48.086;16.282;2023-02-28T11:52:04;4.53;;;4.23;;
12921;SDS011;6528;48.086;16.282;2023-02-28T12:00:43;4.33;;;4.03;;
12921;SDS011;6528;48.086;16.282;2023-02-28T12:03:22;3.83;;;3.53;;
12921;SDS011;6528;48.086;16.282;2023-02-28T12:08:49;4.63;;;4.23;;
12921;SDS011;6528;48.086;16.282;2023-02-28T12:11:30;4.87;;;4.47;;
12921;SDS011;6528;48.086;16.282;2023-02-28T12:14:14;4.33;;;3.93;;
12921;SDS011;6528;48.086;16.282;2023-02-28T12:19:26;3.60;;;3.40;;
12921;SDS011;6528;48.086;16.282;2023-02-28T12:22:31;4.33;;;3.93;;
12921;SDS011;6528;48.086;16.282;2023-02-28T12:25:02;3.80;;;3.50;;
12921;SDS011;6528;48.086;16.282;2023-02-28T12:27:55;4.90;;;4.53;;
12921;SDS011;6528;48.086;16.282;2023-02-28T12:30:27;4.70;;;4.30;;
12921;SDS011;6528;48.086;16.282;2023-02-28T12:33:01;4.60;;;4.20;;
12921;SDS011;6528;48.086;16.282;2023-02-28T12:35:39;4.37;;;3.97;;
12921;SDS011;6528;48.086;16.282;2023-02-28T12:38:21;4.27;;;3.97;;
12921;SDS011;6528;48.086;16.282;2023-02-28T12:40:56;3.40;;;3.10;;
12921;SDS011;6528;48.086;16.282;2023-02-28T12:43:27;3.40;;;3.20;;
12921;SDS011;6528;48.086;16.282;2023-02-28T12:46:02;4.63;;;4.23;;
12921;SDS011;6528;48.086;16.282;2023-02-28T12:48:45;4.33;;;3.93;;
12921;SDS011;6528;48.086;16.282;2023-02-28T12:51:14;3.67;;;3.37;;
12921;SDS011;6528;48.086;16.282;2023-02-28T12:53:51;4.70;;;4.27;;
12921;SDS011;6528;48.086;16.282;2023-02-28T12:59:14;4.67;;;4.27;;
12921;SDS011;6528;48.086;16.282;2023-02-28T13:04:55;4.80;;;4.40;;
12921;SDS011;6528;48.086;16.282;2023-02-28T13:07:49;4.53;;;4.23;;
12921;SDS011;6528;48.086;16.282;2023-02-28T13:10:38;4.40;;;4.00;;
12921;SDS011;6528;48.086;16.282;2023-02-28T13:13:15;3.77;;;3.47;;
12921;SDS011;6528;48.086;16.282;2023-02-28T13:15:57;3.93;;;3.63;;
12921;SDS011;6528;48.086;16.282;2023-02-28T13:18:27;5.10;;;4.70;;
12921;SDS011;6528;48.086;16.282;2023-02-28T13:20:55;4.43;;;4.13;;
12921;SDS011;6528;48.086;16.282;2023-02-28T13:26:07;4.80;;;4.40;;
12921;SDS011;6528;48.086;16.282;2023-02-28T13:32:18;4.00;;;3.70;;
12921;SDS011;6528;48.086;16.282;2023-02-28T13:34:38;5.10;;;4.70;;
12921;SDS011;6528;48.086;16.282;2023-02-28T13:47:51;4.67;;;4.27;;
12921;SDS011;6528;48.086;16.282;2023-02-28T13:55:43;3.67;;;3.37;;
12921;SDS011;6528;48.086;16.282;2023-02-28T13:58:25;4.60;;;4.20;;
12921;SDS011;6528;48.086;16.282;2023-02-28T14:06:50;4.03;;;3.73;;
12921;SDS011;6528;48.086;16.282;2023-02-28T14:09:30;3.40;;;3.20;;
12921;SDS011;6528;48.086;16.282;2023-02-28T14:12:49;3.77;;;3.47;;
12921;SDS011;6528;48.086;16.282;2023-02-28T14:15:04;3.97;;;3.60;;
12921;SDS011;6528;48.086;16.282;2023-02-28T14:17:52;3.83;;;3.53;;
12921;SDS011;6528;48.086;16.282;2023-02-28T14:20:22;3.93;;;3.63;;
12921;SDS011;6528;48.086;16.282;2023-02-28T14:22:55;4.33;;;3.93;;
12921;SDS011;6528;48.086;16.282;2023-02-28T14:25:40;4.30;;;3.90;;
12921;SDS011;6528;48.086;16.282;2023-02-28T14:38:57;4.03;;;3.73;;
12921;SDS011;6528;48.086;16.282;2023-02-28T14:43:59;4.10;;;3.70;;
12921;SDS011;6528;48.086;16.282;2023-02-28T14:46:35;3.57;;;3.30;;
12921;SDS011;6528;48.086;16.282;2023-02-28T14:49:05;3.90;;;3.60;;
12921;SDS011;6528;48.086;16.282;2023-02-28T14:51:35;3.97;;;3.60;;
12921;SDS011;6528;48.086;16.282;2023-02-28T14:54:02;4.40;;;4.10;;
12921;SDS011;6528;48.086;16.282;2023-02-28T14:56:34;4.10;;;3.80;;
12921;SDS011;6528;48.086;16.282;2023-02-28T14:59:03;4.70;;;4.30;;
12921;SDS011;6528;48.086;16.282;2023-02-28T15:01:47;5.37;;;4.87;;
12921;SDS011;6528;48.086;16.282;2023-02-28T15:04:18;4.80;;;4.40;;
12921;SDS011;6528;48.086;16.282;2023-02-28T15:07:09;4.83;;;4.43;;
12921;SDS011;6528;48.086;16.282;2023-02-28T15:09:39;5.43;;;4.93;;
12921;SDS011;6528;48.086;16.282;2023-02-28T15:12:06;4.27;;;3.90;;
12921;SDS011;6528;48.086;16.282;2023-02-28T15:14:33;4.60;;;4.17;;
12921;SDS011;6528;48.086;16.282;2023-02-28T15:17:08;4.20;;;3.90;;
12921;SDS011;6528;48.086;16.282;2023-02-28T15:19:40;5.23;;;4.83;;
12921;SDS011;6528;48.086;16.282;2023-02-28T15:22:12;4.80;;;4.40;;
12921;SDS011;6528;48.086;16.282;2023-02-28T15:24:50;4.80;;;4.40;;
12921;SDS011;6528;48.086;16.282;2023-02-28T15:29:46;5.73;;;5.17;;
12921;SDS011;6528;48.086;16.282;2023-02-28T15:32:23;4.90;;;4.50;;
12921;SDS011;6528;48.086;16.282;2023-02-28T15:37:54;4.93;;;4.53;;
12921;SDS011;6528;48.086;16.282;2023-02-28T15:40:25;5.30;;;4.80;;
12921;SDS011;6528;48.086;16.282;2023-02-28T15:43:00;5.30;;;4.90;;
12921;SDS011;6528;48.086;16.282;2023-02-28T15:45:35;4.50;;;4.10;;
12921;SDS011;6528;48.086;16.282;2023-02-28T15:48:14;5.70;;;5.20;;
12921;SDS011;6528;48.086;16.282;2023-02-28T15:50:47;5.23;;;4.83;;
12921;SDS011;6528;48.086;16.282;2023-02-28T15:53:36;5.03;;;4.60;;
12921;SDS011;6528;48.086;16.282;2023-02-28T15:56:28;5.10;;;4.80;;
12921;SDS011;6528;48.086;16.282;2023-02-28T15:59:26;4.90;;;4.43;;
12921;SDS011;6528;48.086;16.282;2023-02-28T16:02:14;5.03;;;4.63;;
12921;SDS011;6528;48.086;16.282;2023-02-28T16:04:54;4.90;;;4.50;;
12921;SDS011;6528;48.086;16.282;2023-02-28T16:07:26;5.33;;;4.93;;
12921;SDS011;6528;48.086;16.282;2023-02-28T16:09:53;5.33;;;4.93;;
12921;SDS011;6528;48.086;16.282;2023-02-28T16:12:21;5.70;;;5.20;;
12921;SDS011;6528;48.086;16.282;2023-02-28T16:14:53;6.03;;;5.50;;
12921;SDS011;6528;48.086;16.282;2023-02-28T16:17:23;5.47;;;5.00;;
12921;SDS011;6528;48.086;16.282;2023-02-28T16:19:51;5.43;;;4.93;;
12921;SDS011;6528;48.086;16.282;2023-02-28T16:22:18;5.33;;;4.83;;
12921;SDS011;6528;48.086;16.282;2023-02-28T16:24:44;5.50;;;5.10;;
12921;SDS011;6528;48.086;16.282;2023-02-28T16:27:21;5.03;;;4.63;;
12921;SDS011;6528;48.086;16.282;2023-02-28T16:29:55;5.40;;;4.90;;
12921;SDS011;6528;48.086;16.282;2023-02-28T16:32:22;5.70;;;5.20;;
12921;SDS011;6528;48.086;16.282;2023-02-28T16:34:48;6.20;;;5.70;;
12921;SDS011;6528;48.086;16.282;2023-02-28T16:37:16;9.33;;;8.43;;
12921;SDS011;6528;48.086;16.282;2023-02-28T16:39:44;12.33;;;11.03;;
12921;SDS011;6528;48.086;16.282;2023-02-28T16:42:15;14.73;;;13.43;;
12921;SDS011;6528;48.086;16.282;2023-02-28T16:44:47;14.80;;;13.50;;
12921;SDS011;6528;48.086;16.282;2023-02-28T16:47:15;14.37;;;12.87;;
12921;SDS011;6528;48.086;16.282;2023-02-28T16:49:42;13.67;;;12.47;;
12921;SDS011;6528;48.086;16.282;2023-02-28T16:52:09;13.87;;;12.57;;
12921;SDS011;6528;48.086;16.282;2023-02-28T16:54:38;12.37;;;11.30;;
12921;SDS011;6528;48.086;16.282;2023-02-28T16:57:05;13.23;;;12.10;;
12921;SDS011;6528;48.086;16.282;2023-02-28T16:59:41;13.20;;;11.90;;
12921;SDS011;6528;48.086;16.282;2023-02-28T17:02:12;13.77;;;12.40;;
12921;SDS011;6528;48.086;16.282;2023-02-28T17:04:40;12.80;;;11.70;;
12921;SDS011;6528;48.086;16.282;2023-02-28T17:07:16;13.30;;;12.00;;
12921;SDS011;6528;48.086;16.282;2023-02-28T17:09:43;12.17;;;11.10;;
12921;SDS011;6528;48.086;16.282;2023-02-28T17:12:11;12.63;;;11.43;;
12921;SDS011;6528;48.086;16.282;2023-02-28T17:14:38;12.87;;;11.67;;
12921;SDS011;6528;48.086;16.282;2023-02-28T17:17:06;14.67;;;13.30;;
12921;SDS011;6528;48.086;16.282;2023-02-28T17:19:33;13.77;;;12.40;;
12921;SDS011;6528;48.086;16.282;2023-02-28T17:22:02;13.77;;;12.47;;